Zebulon, NC (27597)

6:53 AM EST on November 27, 2014 (GMT -0500)
Lizard Lick / Glory Rd NC | Change Station
CLOSE
Current Station
Personal Weather Station
Location: Wendell, NC
Elevation: 278 ft
Nearby Weather Stations

Elev 278 ft 35.86 °N, 78.37 °W | Updated 4 seconds ago

Rain
Rain
40.2 °F
Feels Like 40 °F
N
0.0
Wind Variable Wind from North
Gusts 0.0 mph

Today
High -- | Low -- °F
--% Chance of Precip.
Yesterday
High -- | Low -- °F
Precip. -- in
7:01 AM 5:00 PM
Waxing Crescent, 29% visible
Pressure 30.01 in
Visibility 5.0 miles
Clouds Scattered Clouds 300 ft
Mostly Cloudy 2800 ft
Overcast 7000 ft
Windchill 40 °F
Dew Point 40 °F
Humidity 99%
Rainfall 0.02 in
Snow Depth Not available.
UV 0 out of 12
Pollen .10 out of 12
Air Quality Not available.
Flu Activity Not available.
METAR KLHZ 271135Z AUTO 11004KT 5SM -RA SCT003 BKN028 OVC070 03/03 A3001 RMK AO2 P0001

More Conditions Fewer Conditions

Pressure 30.01 in
Visibility 5.0 miles
Clouds Scattered Clouds 300 ft
Mostly Cloudy 2800 ft
Overcast 7000 ft
Windchill 40 °F
Dew Point 40 °F
Humidity 99%
Rainfall 0.02 in
Snow Depth Not available.
UV 0 out of 12
Pollen .10 out of 12
Air Quality Not available.
Flu Activity Not available.
METAR KLHZ 271135Z AUTO 11004KT 5SM -RA SCT003 BKN028 OVC070 03/03 A3001 RMK AO2 P0001

More Conditions Fewer Conditions

10-Day Weather Forecast

Almanac

Astronomy

Nov. 27, 2014 Rise Set
Actual Time
Civil Twilight
Nautical Twilight
Astronomical Twilight
Moon
Length of Visible Light
Length of Day
Tomorrow will be .
, % of the Moon is Illuminated

Today's Extremes

State Highs State Lows

Community

WunderPhotos

Upload Photos

1,773,970 photos uploaded!

WunderBlogs® & News

Nearby

Air Quality

  Air Quality AQ Index Pollutant
Not available.

Snow Depth

Station Depth Elevation

Earthquake Activity

City Distance Mag. Time & Date
Minimum magnitude displayed is 2.5.

Coastal Water Temperatures

Place Temperature

Nearby Weather Stations